Time;durP1;ratioP1;P1;durP2;ratioP2;P2;SDS_P1;SDS_P2;PMS_P1;PMS_P2;Temp;Humidity;BMP_temperature;BMP_pressure;BME280_temperature;BME280_humidity;BME280_pressure;Samples;Min_cycle;Max_cycle;Signal;HPM_P1;HPM_P2
2022/05/04 00:00:09;;;;;;;9.73;3.90;;;13.10;91.10;;;;;;4995656;28;20072;-83
2022/05/04 00:02:41;;;;;;;11.50;4.10;;;13.10;91.10;;;;;;4980084;28;20034;-83
2022/05/04 00:05:08;;;;;;;7.90;3.73;;;13.00;91.10;;;;;;4978915;28;20463;-86
2022/05/04 00:07:34;;;;;;;12.90;4.50;;;13.00;91.20;;;;;;5012963;28;20046;-84
2022/05/04 00:10:00;;;;;;;8.87;3.57;;;13.00;91.20;;;;;;5012701;28;20072;-84
2022/05/04 00:12:26;;;;;;;9.23;3.80;;;13.00;91.30;;;;;;4995608;28;20441;-84
2022/05/04 00:14:52;;;;;;;8.37;3.83;;;12.90;91.40;;;;;;4995309;28;20049;-84
2022/05/04 00:17:18;;;;;;;10.23;4.20;;;12.90;91.40;;;;;;4995545;28;20033;-84
2022/05/04 00:19:44;;;;;;;10.60;3.87;;;12.90;91.40;;;;;;4994876;28;20026;-84
2022/05/04 00:22:10;;;;;;;8.53;4.07;;;12.90;91.50;;;;;;5012858;28;20022;-84
2022/05/04 00:24:36;;;;;;;9.80;4.20;;;12.80;91.60;;;;;;5012118;28;20760;-83
2022/05/04 00:27:02;;;;;;;10.90;4.00;;;12.80;91.60;;;;;;5012659;28;20033;-83
2022/05/04 00:29:28;;;;;;;9.80;3.90;;;12.80;91.50;;;;;;5012648;28;20046;-84
2022/05/04 00:31:54;;;;;;;11.30;3.83;;;12.80;91.60;;;;;;5012486;28;20129;-84
2022/05/04 00:34:19;;;;;;;7.60;3.60;;;12.80;91.60;;;;;;5012572;28;20034;-84
2022/05/04 00:36:45;;;;;;;9.33;4.03;;;12.80;91.70;;;;;;5011890;28;20083;-84
2022/05/04 00:39:12;;;;;;;11.43;4.13;;;12.70;91.70;;;;;;5012158;28;20518;-83
2022/05/04 00:41:37;;;;;;;12.27;4.30;;;12.70;91.70;;;;;;5012555;28;20442;-84
2022/05/04 00:44:03;;;;;;;12.50;3.97;;;12.70;91.60;;;;;;5012225;28;20038;-84
2022/05/04 00:46:29;;;;;;;11.20;4.10;;;12.70;91.70;;;;;;5011373;28;20030;-84
2022/05/04 00:48:55;;;;;;;10.67;4.83;;;12.70;91.80;;;;;;4977812;28;20080;-84
2022/05/04 00:51:21;;;;;;;9.20;5.00;;;12.70;91.90;;;;;;5011524;28;20557;-84
2022/05/04 00:53:47;;;;;;;9.33;3.90;;;12.60;91.90;;;;;;5011735;28;20097;-84
2022/05/04 00:56:13;;;;;;;8.87;4.13;;;12.60;91.90;;;;;;4994824;28;20061;-84
2022/05/04 00:58:57;;;;;;;9.00;3.50;;;12.60;91.90;;;;;;5011812;28;20034;-84
2022/05/04 01:01:26;;;;;;;9.43;4.27;;;12.60;91.80;;;;;;4994239;28;20486;-84
2022/05/04 01:03:52;;;;;;;6.97;4.10;;;12.50;92.00;;;;;;5012319;28;20030;-84
2022/05/04 01:06:18;;;;;;;8.13;3.90;;;12.40;92.10;;;;;;4994174;28;20033;-84
2022/05/04 01:08:44;;;;;;;13.50;4.37;;;12.50;92.00;;;;;;5011404;28;20022;-85
2022/05/04 01:11:09;;;;;;;7.90;4.10;;;12.40;92.00;;;;;;5011929;28;20474;-84
2022/05/04 01:13:35;;;;;;;11.67;3.97;;;12.40;92.00;;;;;;4994205;28;20034;-84
2022/05/04 01:16:01;;;;;;;9.53;4.00;;;12.50;92.10;;;;;;5012033;28;20034;-84
2022/05/04 01:18:27;;;;;;;10.00;4.17;;;12.40;92.00;;;;;;5011811;28;20033;-85
2022/05/04 01:20:53;;;;;;;10.73;4.53;;;12.40;92.10;;;;;;4993829;28;20037;-84
2022/05/04 01:23:19;;;;;;;9.80;4.27;;;12.30;92.20;;;;;;5011086;28;20034;-85
2022/05/04 01:25:47;;;;;;;9.03;4.37;;;12.30;92.20;;;;;;5011663;28;20026;-84
2022/05/04 01:28:13;;;;;;;13.50;4.80;;;12.30;92.30;;;;;;5011561;28;20474;-85
2022/05/04 01:30:39;;;;;;;10.83;4.53;;;12.10;92.40;;;;;;5011689;28;20022;-84
2022/05/04 01:33:05;;;;;;;8.63;4.57;;;12.20;92.50;;;;;;4993763;28;20030;-84
2022/05/04 01:35:31;;;;;;;9.87;4.60;;;12.20;92.50;;;;;;4993442;28;20034;-85
2022/05/04 01:37:57;;;;;;;12.20;5.60;;;12.20;92.40;;;;;;5011605;28;20033;-84
2022/05/04 01:40:23;;;;;;;10.30;4.67;;;12.20;92.30;;;;;;4993246;28;20034;-84
2022/05/04 01:42:49;;;;;;;10.40;4.60;;;12.20;92.40;;;;;;4977570;28;20062;-84
2022/05/04 01:45:15;;;;;;;12.03;4.40;;;12.20;92.40;;;;;;5011086;28;20109;-84
2022/05/04 01:47:41;;;;;;;11.93;4.70;;;12.20;92.40;;;;;;5011317;28;20032;-84
2022/05/04 01:50:07;;;;;;;8.63;4.13;;;12.30;92.40;;;;;;4993419;28;20033;-84
2022/05/04 01:52:32;;;;;;;9.23;4.33;;;12.20;92.30;;;;;;4993558;28;20026;-85
2022/05/04 01:55:01;;;;;;;9.57;4.33;;;12.20;92.30;;;;;;5010288;28;20498;-84
2022/05/04 01:57:27;;;;;;;13.33;4.80;;;12.20;92.30;;;;;;4993455;28;20045;-85
2022/05/04 01:59:53;;;;;;;10.63;4.20;;;12.20;92.20;;;;;;4993567;28;20769;-84
2022/05/04 02:02:20;;;;;;;8.90;4.37;;;12.20;92.30;;;;;;4993427;28;20121;-84
2022/05/04 02:04:45;;;;;;;13.40;4.63;;;12.20;92.20;;;;;;4992998;28;20479;-84
2022/05/04 02:07:12;;;;;;;14.03;4.53;;;12.10;92.30;;;;;;4993192;28;20033;-84
2022/05/04 02:09:38;;;;;;;10.10;4.77;;;12.10;92.20;;;;;;5010572;28;20022;-85
2022/05/04 02:12:05;;;;;;;11.07;4.13;;;12.10;92.20;;;;;;5010843;28;20109;-84
2022/05/04 02:14:32;;;;;;;12.97;4.77;;;12.00;92.30;;;;;;5010575;28;20037;-84
2022/05/04 02:16:58;;;;;;;14.77;5.63;;;12.00;92.40;;;;;;4993070;28;20113;-84
2022/05/04 02:19:24;;;;;;;10.60;5.00;;;12.00;92.40;;;;;;5010917;28;20466;-84
2022/05/04 02:21:50;;;;;;;10.10;5.00;;;11.90;92.30;;;;;;4976238;28;20040;-84
2022/05/04 02:24:16;;;;;;;13.57;5.70;;;11.70;92.50;;;;;;4991889;28;20046;-84
2022/05/04 02:26:41;;;;;;;15.00;6.63;;;11.70;92.60;;;;;;5010165;28;20053;-84
2022/05/04 02:29:10;;;;;;;13.27;5.13;;;11.60;92.80;;;;;;5010392;28;20022;-84
2022/05/04 02:31:35;;;;;;;12.97;5.60;;;11.60;92.80;;;;;;4992394;28;20049;-84
2022/05/04 02:34:01;;;;;;;12.27;4.87;;;11.60;92.80;;;;;;5010064;28;20113;-84
2022/05/04 02:39:11;;;;;;;12.40;5.27;;;11.70;92.70;;;;;;5009615;28;20075;-84
2022/05/04 02:41:37;;;;;;;11.63;5.00;;;11.70;92.60;;;;;;5010008;28;20042;-84
2022/05/04 02:44:03;;;;;;;10.97;4.73;;;11.70;92.40;;;;;;4992191;28;20045;-84
2022/05/04 02:46:30;;;;;;;12.43;4.73;;;11.60;92.60;;;;;;4992259;28;20026;-85
2022/05/04 02:48:57;;;;;;;13.90;5.40;;;11.60;92.60;;;;;;5009833;28;20326;-85
2022/05/04 02:51:23;;;;;;;10.60;4.53;;;11.60;92.60;;;;;;5009367;28;20121;-84
2022/05/04 02:53:49;;;;;;;12.20;4.97;;;11.60;92.60;;;;;;5009312;28;20149;-84
2022/05/04 02:56:15;;;;;;;9.20;4.43;;;11.60;92.60;;;;;;5010071;28;20036;-84
2022/05/04 02:58:42;;;;;;;10.17;4.57;;;11.60;92.60;;;;;;5009672;28;20030;-84
2022/05/04 03:04:06;;;;;;;13.45;5.20;;;11.60;92.30;;;;;;5009818;28;20033;-84
2022/05/04 03:06:33;;;;;;;12.83;5.13;;;11.50;92.40;;;;;;5009719;28;20508;-84
2022/05/04 03:08:59;;;;;;;12.37;4.60;;;11.60;92.30;;;;;;5009197;28;20081;-84
2022/05/04 03:14:09;;;;;;;8.80;4.40;;;11.50;92.30;;;;;;5009627;28;20512;-84
2022/05/04 03:16:36;;;;;;;12.80;5.40;;;11.50;92.30;;;;;;5009510;28;20065;-84
2022/05/04 03:19:05;;;;;;;16.30;5.10;;;11.40;92.10;;;;;;5009534;28;20036;-84
2022/05/04 03:21:32;;;;;;;14.07;4.73;;;11.40;92.20;;;;;;5009176;28;20041;-84
2022/05/04 03:23:58;;;;;;;9.07;4.77;;;11.40;92.20;;;;;;4991320;28;20030;-84
2022/05/04 03:26:27;;;;;;;15.70;5.37;;;11.30;92.30;;;;;;5009585;28;20026;-84
2022/05/04 03:28:53;;;;;;;12.75;5.20;;;11.20;92.30;;;;;;4975518;28;20022;-84
2022/05/04 03:35:23;;;;;;;13.20;4.77;;;11.20;92.50;;;;;;5009524;23;20529;-72
2022/05/04 03:37:49;;;;;;;18.57;5.50;;;11.20;92.60;;;;;;5009668;28;20101;-70
2022/05/04 03:40:15;;;;;;;11.87;5.70;;;11.10;92.60;;;;;;4991559;28;20053;-71
2022/05/04 03:42:41;;;;;;;11.13;5.27;;;11.20;92.50;;;;;;5009002;28;20026;-72
2022/05/04 03:45:08;;;;;;;12.37;5.27;;;11.10;92.60;;;;;;5009419;28;20026;-72
2022/05/04 03:47:33;;;;;;;13.30;5.03;;;11.10;92.60;;;;;;5009641;28;20780;-73
2022/05/04 03:49:59;;;;;;;12.27;5.30;;;11.10;92.70;;;;;;5009653;28;20026;-73
2022/05/04 03:52:25;;;;;;;13.33;5.97;;;11.20;92.70;;;;;;5009306;28;20037;-72
2022/05/04 03:54:51;;;;;;;11.13;4.83;;;11.20;92.70;;;;;;5009162;28;20125;-71
2022/05/04 03:57:17;;;;;;;15.07;5.20;;;11.20;92.60;;;;;;5009368;28;20060;-73
2022/05/04 03:59:43;;;;;;;13.63;5.10;;;11.20;92.50;;;;;;5009063;28;20478;-73
2022/05/04 04:02:09;;;;;;;9.87;5.10;;;11.20;92.50;;;;;;5009299;28;20033;-72
2022/05/04 04:04:35;;;;;;;19.37;5.67;;;11.10;92.40;;;;;;5009254;28;20441;-72
2022/05/04 04:07:01;;;;;;;12.67;5.23;;;11.00;92.60;;;;;;5008180;28;20348;-73
2022/05/04 04:09:27;;;;;;;9.77;5.07;;;11.00;92.80;;;;;;5008865;28;20033;-72
2022/05/04 04:11:53;;;;;;;15.20;7.23;;;10.90;92.80;;;;;;5009347;28;20036;-72
2022/05/04 04:14:19;;;;;;;15.60;6.03;;;10.90;92.90;;;;;;5009210;28;20029;-73
2022/05/04 04:16:45;;;;;;;11.83;5.83;;;10.90;92.90;;;;;;5008956;28;20041;-72
2022/05/04 04:19:11;;;;;;;15.10;6.20;;;10.90;92.90;;;;;;5009302;28;20026;-72
2022/05/04 04:21:52;;;;;;;18.50;5.97;;;10.90;92.80;;;;;;5009146;28;20026;-73
2022/05/04 04:24:19;;;;;;;15.10;6.03;;;10.80;93.00;;;;;;5012326;28;20025;-72
2022/05/04 04:26:45;;;;;;;14.77;5.87;;;10.80;92.80;;;;;;5012519;28;20033;-72
2022/05/04 04:29:11;;;;;;;12.13;5.60;;;10.70;92.90;;;;;;5012634;28;20033;-72
2022/05/04 04:31:37;;;;;;;16.93;6.17;;;10.70;93.10;;;;;;5011966;28;20393;-73
2022/05/04 04:34:04;;;;;;;15.77;6.97;;;10.70;93.10;;;;;;5012672;28;20133;-72
2022/05/04 04:36:30;;;;;;;17.03;6.03;;;10.70;93.10;;;;;;5012488;28;20025;-71
2022/05/04 04:38:56;;;;;;;17.00;7.03;;;10.80;93.10;;;;;;5012175;28;20102;-72
2022/05/04 04:41:22;;;;;;;13.97;6.40;;;10.70;92.90;;;;;;5012224;28;20568;-71
2022/05/04 04:43:48;;;;;;;15.93;7.40;;;10.70;92.90;;;;;;5012321;28;20030;-72
2022/05/04 04:46:14;;;;;;;15.50;6.30;;;10.80;93.00;;;;;;5012095;28;20032;-68
2022/05/04 04:48:40;;;;;;;14.23;6.00;;;10.70;93.00;;;;;;5012484;28;20091;-71
2022/05/04 04:51:06;;;;;;;18.03;6.13;;;10.80;93.00;;;;;;5012694;28;20363;-73
2022/05/04 04:53:32;;;;;;;15.70;6.47;;;10.80;93.00;;;;;;5011930;28;20032;-73
2022/05/04 04:55:58;;;;;;;19.40;7.00;;;10.80;93.10;;;;;;5012648;28;20026;-73
2022/05/04 04:58:25;;;;;;;15.10;6.23;;;10.80;93.10;;;;;;4994756;28;20112;-73
2022/05/04 05:00:51;;;;;;;17.33;6.60;;;10.90;93.20;;;;;;5012816;28;20156;-72
2022/05/04 05:03:17;;;;;;;19.47;7.47;;;10.90;93.20;;;;;;5012055;28;20088;-71
2022/05/04 05:05:44;;;;;;;16.33;6.73;;;10.80;93.10;;;;;;4994491;28;20113;-72
2022/05/04 05:08:11;;;;;;;14.67;7.13;;;10.90;93.10;;;;;;4977072;28;20197;-72
2022/05/04 05:10:38;;;;;;;15.80;7.27;;;10.80;93.20;;;;;;4993949;28;20044;-72
2022/05/04 05:13:04;;;;;;;14.80;7.03;;;10.90;93.20;;;;;;5011663;28;20085;-72
2022/05/04 05:18:17;;;;;;;13.73;6.80;;;10.90;93.20;;;;;;5011615;28;20041;-73
2022/05/04 05:20:43;;;;;;;13.37;6.27;;;10.90;93.20;;;;;;5011562;28;20041;-73
2022/05/04 05:23:09;;;;;;;16.50;6.53;;;10.90;93.00;;;;;;5011224;28;20125;-73
2022/05/04 05:25:35;;;;;;;12.37;6.03;;;10.80;93.00;;;;;;5012161;28;20109;-73
2022/05/04 05:28:01;;;;;;;14.73;6.43;;;10.80;93.10;;;;;;5011862;28;20090;-72
2022/05/04 05:30:29;;;;;;;15.00;6.73;;;10.80;93.20;;;;;;5011700;28;20406;-72
2022/05/04 05:32:55;;;;;;;14.90;6.43;;;10.80;93.20;;;;;;4993890;28;20046;-71
2022/05/04 05:35:21;;;;;;;15.67;7.37;;;10.90;93.20;;;;;;5011503;28;20385;-72
2022/05/04 05:37:47;;;;;;;16.67;7.67;;;11.00;93.20;;;;;;5011408;28;20041;-73
2022/05/04 05:40:17;;;;;;;19.90;7.57;;;11.10;93.10;;;;;;5011431;28;20045;-72
2022/05/04 05:42:43;;;;;;;20.10;7.67;;;11.10;92.90;;;;;;5011478;28;20089;-72
2022/05/04 05:45:09;;;;;;;15.47;6.77;;;11.00;92.90;;;;;;5025513;23;20045;-67
2022/05/04 05:47:35;;;;;;;15.97;6.97;;;10.90;93.00;;;;;;5011045;28;20471;-67
2022/05/04 05:50:01;;;;;;;19.67;7.57;;;10.90;93.00;;;;;;5011481;28;20393;-67
2022/05/04 05:52:27;;;;;;;15.40;6.83;;;11.00;93.10;;;;;;5011055;28;20499;-66
2022/05/04 05:54:53;;;;;;;16.10;7.10;;;11.00;93.30;;;;;;5010716;28;20109;-66
2022/05/04 05:57:22;;;;;;;20.33;7.17;;;11.10;93.10;;;;;;5010660;28;20041;-66
2022/05/04 05:59:48;;;;;;;19.73;7.00;;;11.10;93.10;;;;;;5011103;28;20030;-65
2022/05/04 06:02:14;;;;;;;22.13;8.17;;;11.10;92.80;;;;;;5011376;28;20052;-65
2022/05/04 06:04:40;;;;;;;20.80;6.70;;;11.00;93.70;;;;;;5011306;28;20522;-65
2022/05/04 06:07:06;;;;;;;14.33;6.87;;;10.90;93.20;;;;;;5011451;28;20033;-65
2022/05/04 06:09:32;;;;;;;16.97;7.60;;;11.00;93.80;;;;;;5010585;28;20517;-66
2022/05/04 06:11:58;;;;;;;16.17;7.40;;;11.10;93.40;;;;;;5011144;28;20368;-65
2022/05/04 06:14:24;;;;;;;18.80;7.50;;;11.10;93.20;;;;;;5010844;28;20550;-66
2022/05/04 06:16:50;;;;;;;16.57;7.87;;;11.20;92.90;;;;;;5010788;28;20068;-65
2022/05/04 06:19:16;;;;;;;21.20;7.70;;;11.30;93.00;;;;;;5011116;28;20451;-65
2022/05/04 06:21:42;;;;;;;17.30;7.17;;;11.30;93.10;;;;;;5010919;28;20581;-65
2022/05/04 06:24:08;;;;;;;16.53;7.10;;;11.30;93.20;;;;;;5010643;28;20120;-66
2022/05/04 06:26:34;;;;;;;15.47;7.23;;;11.40;93.70;;;;;;5010525;28;20426;-67
2022/05/04 06:29:00;;;;;;;17.77;7.40;;;11.40;93.50;;;;;;5010513;28;20045;-66
2022/05/04 06:34:11;;;;;;;18.23;7.27;;;11.50;93.00;;;;;;5010192;28;20544;-66
2022/05/04 06:36:41;;;;;;;18.73;7.47;;;11.50;93.20;;;;;;5010633;28;20113;-65
2022/05/04 06:39:08;;;;;;;13.63;8.00;;;11.60;93.20;;;;;;4992055;28;20172;-65
2022/05/04 06:41:35;;;;;;;15.00;7.63;;;11.60;93.10;;;;;;5010456;28;20034;-67
2022/05/04 06:44:05;;;;;;;18.27;7.60;;;11.70;92.90;;;;;;5009861;28;20467;-66
2022/05/04 06:46:32;;;;;;;18.87;8.33;;;11.70;92.70;;;;;;5009431;28;20428;-67
2022/05/04 06:48:58;;;;;;;15.60;7.73;;;11.70;92.60;;;;;;5010214;28;20389;-67
2022/05/04 06:51:24;;;;;;;16.93;7.60;;;11.70;92.60;;;;;;5009823;28;20448;-67
2022/05/04 06:53:50;;;;;;;24.10;9.63;;;11.60;92.50;;;;;;5009620;28;20112;-67
2022/05/04 06:56:15;;;;;;;19.23;8.93;;;11.70;92.60;;;;;;5009790;28;20087;-65
2022/05/04 06:58:42;;;;;;;21.50;8.47;;;11.70;92.70;;;;;;5009608;28;20022;-66
2022/05/04 07:01:08;;;;;;;18.93;8.90;;;11.80;92.90;;;;;;5010338;28;20091;-65
2022/05/04 07:03:36;;;;;;;14.33;7.27;;;11.80;92.70;;;;;;5009601;28;20454;-67
2022/05/04 07:06:02;;;;;;;22.13;8.47;;;11.90;92.90;;;;;;5009760;28;20036;-67
2022/05/04 07:08:28;;;;;;;17.43;8.47;;;11.90;92.80;;;;;;4991112;28;20846;-67
2022/05/04 07:10:53;;;;;;;17.67;8.13;;;11.90;92.90;;;;;;5009807;28;20096;-67
2022/05/04 07:13:19;;;;;;;16.07;7.93;;;11.90;92.60;;;;;;5009693;28;20037;-67
2022/05/04 07:15:45;;;;;;;18.73;7.93;;;12.00;92.70;;;;;;4991935;28;20041;-68
2022/05/04 07:18:11;;;;;;;18.23;8.03;;;12.10;92.70;;;;;;4992565;28;20406;-69
2022/05/04 07:20:36;;;;;;;19.40;8.20;;;12.10;92.60;;;;;;5010033;28;20034;-68
2022/05/04 07:23:02;;;;;;;19.50;9.03;;;12.20;92.60;;;;;;4992068;28;20037;-69
2022/05/04 07:25:28;;;;;;;20.17;8.70;;;12.20;92.20;;;;;;5009502;28;20549;-68
2022/05/04 07:27:54;;;;;;;23.77;9.27;;;12.20;92.40;;;;;;5010131;28;20041;-68
2022/05/04 07:30:20;;;;;;;14.87;7.97;;;12.30;92.10;;;;;;5009834;28;20034;-67
2022/05/04 07:32:46;;;;;;;23.27;9.10;;;12.30;92.30;;;;;;5009735;28;20109;-67
2022/05/04 07:35:12;;;;;;;20.37;8.77;;;12.40;92.10;;;;;;5009991;28;20494;-67
2022/05/04 07:37:38;;;;;;;20.50;8.70;;;12.40;92.00;;;;;;5009713;28;20028;-67
2022/05/04 07:42:49;;;;;;;22.07;9.53;;;12.40;92.20;;;;;;5010217;28;20486;-67
2022/05/04 07:45:15;;;;;;;21.23;9.40;;;12.40;92.10;;;;;;4992124;28;20088;-69
2022/05/04 07:47:41;;;;;;;18.37;8.10;;;12.50;92.10;;;;;;4992273;28;20033;-71
2022/05/04 07:50:11;;;;;;;15.70;8.37;;;12.40;92.20;;;;;;5010227;28;20327;-68
2022/05/04 07:52:38;;;;;;;18.80;9.03;;;12.50;92.10;;;;;;5009337;28;20026;-67
2022/05/04 07:55:05;;;;;;;17.07;8.33;;;12.50;91.90;;;;;;5008991;28;20037;-68
2022/05/04 07:57:31;;;;;;;16.70;8.00;;;12.50;92.00;;;;;;4994092;28;20117;-67
2022/05/04 08:05:31;;;;;;;16.03;8.70;;;12.70;92.10;;;;;;5012931;28;20030;-67
2022/05/04 08:07:57;;;;;;;19.40;8.30;;;12.70;92.00;;;;;;5012665;28;20474;-68
2022/05/04 08:10:24;;;;;;;20.67;8.20;;;12.80;91.90;;;;;;5012765;28;20122;-68
2022/05/04 08:12:50;;;;;;;20.03;9.40;;;12.80;91.90;;;;;;5013262;28;20061;-67
2022/05/04 08:15:16;;;;;;;19.60;8.63;;;12.80;92.00;;;;;;5012972;28;20018;-68
2022/05/04 08:17:42;;;;;;;27.87;10.30;;;12.90;92.00;;;;;;5013348;28;20443;-67
2022/05/04 08:20:08;;;;;;;20.33;10.03;;;13.00;92.70;;;;;;5012859;28;20037;-67
2022/05/04 08:22:34;;;;;;;22.77;9.37;;;13.10;92.20;;;;;;5012665;28;20018;-68
2022/05/04 08:25:00;;;;;;;22.17;9.70;;;13.10;92.20;;;;;;5012281;28;20091;-67
2022/05/04 08:27:26;;;;;;;21.53;9.67;;;13.20;92.40;;;;;;5012724;28;20030;-69
2022/05/04 08:29:52;;;;;;;21.37;9.87;;;13.20;91.60;;;;;;5012468;28;20087;-67
2022/05/04 08:32:18;;;;;;;20.70;10.23;;;13.10;92.00;;;;;;5012176;28;20116;-66
2022/05/04 08:34:44;;;;;;;18.23;9.70;;;13.10;91.70;;;;;;5012481;28;20050;-67
2022/05/04 08:37:10;;;;;;;21.23;8.83;;;13.10;91.80;;;;;;5012064;28;20688;-67
2022/05/04 08:39:36;;;;;;;17.27;9.30;;;13.10;91.80;;;;;;5012035;28;20120;-68
2022/05/04 08:42:02;;;;;;;21.23;9.60;;;13.20;91.90;;;;;;5012229;28;20062;-66
2022/05/04 08:44:28;;;;;;;16.95;9.10;;;13.20;91.80;;;;;;5011752;28;20029;-67
2022/05/04 08:46:55;;;;;;;21.98;9.75;;;13.30;91.80;;;;;;5009009;28;20033;-66
2022/05/04 08:49:23;;;;;;;15.97;8.50;;;13.30;91.50;;;;;;5011809;28;20030;-67
2022/05/04 08:51:51;;;;;;;25.45;10.93;;;13.30;91.40;;;;;;5011509;28;20101;-67
2022/05/04 08:54:17;;;;;;;23.38;11.20;;;13.40;91.30;;;;;;5011437;28;20038;-67
2022/05/04 08:56:43;;;;;;;20.83;10.30;;;13.40;91.20;;;;;;5011486;28;20057;-67
2022/05/04 08:59:09;;;;;;;27.05;10.88;;;13.50;91.20;;;;;;5011929;28;20030;-66
2022/05/04 09:01:39;;;;;;;19.52;9.95;;;13.50;90.90;;;;;;5011934;28;20038;-67
2022/05/04 09:04:06;;;;;;;21.05;9.00;;;13.50;91.10;;;;;;5012797;28;20029;-67
2022/05/04 09:06:37;;;;;;;24.02;11.32;;;13.50;91.30;;;;;;5012164;28;20029;-67
2022/05/04 09:09:10;;;;;;;24.88;11.00;;;13.50;91.50;;;;;;5012699;28;20034;-65
2022/05/04 09:11:45;;;;;;;25.13;10.63;;;13.50;91.00;;;;;;5012833;28;20026;-65
2022/05/04 09:14:12;;;;;;;23.65;9.88;;;13.50;91.00;;;;;;5013160;28;20134;-67
2022/05/04 09:16:39;;;;;;;22.77;9.95;;;13.50;91.10;;;;;;5012722;28;20034;-66
2022/05/04 09:19:11;;;;;;;20.73;9.68;;;13.60;91.00;;;;;;4995442;28;20034;-65
2022/05/04 09:21:39;;;;;;;23.58;9.30;;;13.60;90.90;;;;;;5012943;28;20436;-67
2022/05/04 09:24:05;;;;;;;23.77;10.65;;;13.70;91.20;;;;;;5013151;28;20036;-67
2022/05/04 09:26:32;;;;;;;24.92;10.85;;;13.70;90.90;;;;;;5012922;28;20021;-67
2022/05/04 09:29:02;;;;;;;31.55;11.10;;;13.70;90.90;;;;;;5013086;28;20363;-67
2022/05/04 09:31:32;;;;;;;23.98;10.68;;;13.80;91.10;;;;;;5012933;28;20041;-67
2022/05/04 09:34:00;;;;;;;22.83;10.43;;;13.80;90.80;;;;;;5012856;28;20045;-67
2022/05/04 09:36:38;;;;;;;21.60;10.18;;;13.90;91.00;;;;;;5012788;28;20037;-66
2022/05/04 09:45:16;;;;;;;24.15;10.27;;;14.10;90.60;;;;;;5012671;28;20541;-66
2022/05/04 09:47:45;;;;;;;22.23;10.38;;;14.20;90.20;;;;;;5012459;28;20026;-66
2022/05/04 09:50:15;;;;;;;21.05;10.13;;;14.30;89.90;;;;;;5012702;28;20040;-67
2022/05/04 09:52:47;;;;;;;21.35;9.90;;;14.40;89.40;;;;;;5012507;28;20073;-66
2022/05/04 09:55:19;;;;;;;18.40;8.77;;;14.40;88.10;;;;;;5012535;28;20036;-67
2022/05/04 09:57:46;;;;;;;15.20;8.15;;;14.50;88.10;;;;;;5012230;28;20025;-67
2022/05/04 10:00:14;;;;;;;21.70;9.55;;;14.40;88.70;;;;;;5012270;28;20025;-66
2022/05/04 10:02:44;;;;;;;16.33;8.70;;;14.50;87.90;;;;;;5012427;28;20053;-66
2022/05/04 10:05:10;;;;;;;16.35;8.80;;;14.40;88.00;;;;;;5012319;28;20482;-66
2022/05/04 10:07:37;;;;;;;22.13;9.15;;;14.50;87.80;;;;;;5012166;28;20026;-66
2022/05/04 10:10:09;;;;;;;15.32;8.55;;;14.50;88.00;;;;;;5012021;28;20037;-66
2022/05/04 10:12:39;;;;;;;18.17;8.90;;;14.50;88.50;;;;;;5012231;28;20026;-67
2022/05/04 10:15:17;;;;;;;19.35;9.18;;;14.50;88.20;;;;;;4994747;28;20038;-68
2022/05/04 10:18:03;;;;;;;23.05;9.32;;;14.50;88.20;;;;;;5011847;28;20029;-67
2022/05/04 10:20:41;;;;;;;20.00;9.60;;;14.50;88.10;;;;;;5011300;28;20065;-66
2022/05/04 10:23:29;;;;;;;20.75;9.07;;;14.60;87.40;;;;;;5027322;28;20026;-66
2022/05/04 10:25:58;;;;;;;18.90;9.65;;;14.60;87.20;;;;;;5027246;28;20025;-66
2022/05/04 10:28:25;;;;;;;21.95;8.45;;;14.70;86.80;;;;;;5011792;28;20394;-66
2022/05/04 10:30:55;;;;;;;16.70;8.60;;;14.70;87.40;;;;;;5012057;28;20390;-66
2022/05/04 10:33:37;;;;;;;18.83;8.13;;;14.70;87.50;;;;;;5011698;28;20040;-66
2022/05/04 10:36:17;;;;;;;19.85;9.68;;;14.70;87.80;;;;;;5011863;28;20038;-66
2022/05/04 10:38:44;;;;;;;21.15;9.70;;;14.70;86.60;;;;;;5011537;28;20084;-66
2022/05/04 10:41:12;;;;;;;16.33;8.35;;;14.80;86.30;;;;;;5011737;28;20030;-64
2022/05/04 10:43:43;;;;;;;19.00;8.13;;;14.70;86.30;;;;;;5011819;28;20395;-66
2022/05/04 10:46:23;;;;;;;16.50;8.23;;;14.80;85.90;;;;;;5011500;28;20288;-67
2022/05/04 10:48:58;;;;;;;16.33;8.52;;;14.80;85.50;;;;;;5011503;28;20061;-66
2022/05/04 10:51:28;;;;;;;17.30;8.35;;;14.80;85.60;;;;;;5011320;28;20051;-66
2022/05/04 10:54:10;;;;;;;18.15;8.55;;;14.90;84.90;;;;;;5011589;28;20112;-67
2022/05/04 10:56:44;;;;;;;17.92;8.13;;;14.90;84.40;;;;;;5011278;28;20109;-67
2022/05/04 10:59:12;;;;;;;15.85;8.52;;;14.90;84.10;;;;;;5011355;28;20474;-67
2022/05/04 11:01:39;;;;;;;17.00;8.18;;;14.90;83.10;;;;;;5026465;28;20034;-67
2022/05/04 11:04:09;;;;;;;18.95;9.43;;;14.90;82.80;;;;;;5011170;28;20025;-67
2022/05/04 11:06:41;;;;;;;17.73;8.65;;;14.80;83.60;;;;;;5011651;28;20356;-67
2022/05/04 11:09:14;;;;;;;20.13;9.35;;;14.80;83.40;;;;;;5011191;28;20104;-66
2022/05/04 11:11:43;;;;;;;18.30;9.00;;;14.80;84.20;;;;;;5011187;28;20108;-67
2022/05/04 11:14:10;;;;;;;19.42;9.20;;;14.90;83.90;;;;;;5011242;28;20034;-66
2022/05/04 11:16:38;;;;;;;23.38;8.75;;;14.80;84.20;;;;;;5011063;28;20041;-66
2022/05/04 11:19:06;;;;;;;18.35;7.32;;;14.90;83.90;;;;;;5011162;28;20308;-67
2022/05/04 11:21:33;;;;;;;14.63;6.78;;;15.00;82.80;;;;;;5010987;28;20410;-67
2022/05/04 11:24:01;;;;;;;16.15;6.75;;;15.00;81.50;;;;;;5011403;28;20467;-67
2022/05/04 11:26:33;;;;;;;15.55;7.10;;;15.00;80.80;;;;;;5010989;28;20438;-66
2022/05/04 11:28:59;;;;;;;19.00;6.47;;;15.10;80.80;;;;;;5011180;28;20030;-66
2022/05/04 11:31:25;;;;;;;15.07;6.05;;;15.20;80.20;;;;;;5012213;28;20065;-67
2022/05/04 11:33:51;;;;;;;12.60;6.47;;;15.20;80.30;;;;;;5015180;28;20061;-67
2022/05/04 11:36:22;;;;;;;18.83;7.35;;;15.30;78.40;;;;;;5015127;28;20061;-66
2022/05/04 11:38:49;;;;;;;20.45;9.43;;;15.30;78.10;;;;;;5014963;28;20065;-66
2022/05/04 11:41:17;;;;;;;14.50;7.10;;;15.30;78.80;;;;;;5015038;28;20030;-66
2022/05/04 11:43:44;;;;;;;16.10;7.30;;;15.30;79.70;;;;;;5030036;28;20030;-67
2022/05/04 11:46:12;;;;;;;16.63;6.75;;;15.40;78.30;;;;;;5015967;22;20526;-72
2022/05/04 11:48:43;;;;;;;15.07;6.95;;;15.40;77.70;;;;;;4958425;28;20426;-72
2022/05/04 11:51:11;;;;;;;12.88;6.07;;;15.40;77.30;;;;;;4976131;28;20377;-72
2022/05/04 11:53:38;;;;;;;17.42;6.18;;;15.40;74.80;;;;;;4975649;28;20040;-72
2022/05/04 11:56:05;;;;;;;12.70;6.20;;;15.30;75.60;;;;;;4975831;28;20042;-72
2022/05/04 11:58:33;;;;;;;14.48;5.70;;;15.30;76.60;;;;;;4975528;28;20399;-72
2022/05/04 12:01:01;;;;;;;15.68;7.60;;;15.30;78.00;;;;;;4975761;28;20113;-72
2022/05/04 12:03:29;;;;;;;19.00;6.65;;;15.40;77.50;;;;;;4975460;28;20460;-72
2022/05/04 12:05:56;;;;;;;14.73;6.32;;;15.50;77.70;;;;;;4975405;28;20479;-72
2022/05/04 12:08:23;;;;;;;14.73;6.28;;;15.40;77.10;;;;;;4975261;28;20105;-69
2022/05/04 12:10:50;;;;;;;15.65;6.95;;;15.50;77.70;;;;;;4975373;28;20026;-69
2022/05/04 12:13:23;;;;;;;16.83;6.35;;;15.50;77.20;;;;;;4975223;28;20109;-69
2022/05/04 12:15:56;;;;;;;15.48;6.25;;;15.60;76.80;;;;;;4974132;28;20119;-69
2022/05/04 12:18:32;;;;;;;14.50;6.85;;;15.60;77.70;;;;;;4974778;28;20035;-69
2022/05/04 12:21:05;;;;;;;13.27;7.07;;;15.80;77.00;;;;;;4975296;28;20161;-71
2022/05/04 12:23:32;;;;;;;12.38;6.55;;;15.90;74.40;;;;;;4975079;28;20039;-71
2022/05/04 12:25:58;;;;;;;14.30;6.10;;;15.80;74.80;;;;;;4973970;28;20031;-72
2022/05/04 12:28:24;;;;;;;12.43;5.72;;;15.70;75.40;;;;;;4975286;28;20023;-72
2022/05/04 12:33:39;;;;;;;14.52;5.68;;;15.80;74.60;;;;;;4975250;28;20420;-72
2022/05/04 12:36:11;;;;;;;15.57;6.72;;;15.70;74.10;;;;;;4974915;28;20054;-72
2022/05/04 12:38:45;;;;;;;13.63;6.07;;;15.80;73.70;;;;;;4974656;28;20503;-69
2022/05/04 12:41:14;;;;;;;11.80;5.28;;;15.90;72.60;;;;;;4974798;28;20117;-69
2022/05/04 12:43:40;;;;;;;;;;;16.00;73.10;;;;;;4974076;28;20038;-69
2022/05/04 12:46:11;;;;;;;13.15;5.82;;;16.00;73.70;;;;;;4973444;28;20286;-69
2022/05/04 12:48:41;;;;;;;9.88;4.65;;;16.20;72.60;;;;;;4973380;28;20153;-69
2022/05/04 12:51:08;;;;;;;13.45;5.63;;;16.00;72.90;;;;;;4974665;28;20081;-69
2022/05/04 12:53:34;;;;;;;15.13;6.25;;;16.00;72.70;;;;;;4974897;28;20031;-69
2022/05/04 12:58:44;;;;;;;14.18;5.47;;;16.10;72.60;;;;;;4974501;28;20451;-69
2022/05/04 13:01:10;;;;;;;15.05;5.28;;;16.10;72.40;;;;;;4974636;28;20035;-69
2022/05/04 13:03:36;;;;;;;12.90;5.15;;;16.00;73.30;;;;;;4973042;28;20480;-69
2022/05/04 13:06:03;;;;;;;12.27;5.90;;;16.00;74.00;;;;;;4974421;28;20026;-70
2022/05/04 13:08:28;;;;;;;10.75;5.80;;;16.10;73.80;;;;;;4974180;28;20031;-70
2022/05/04 13:10:55;;;;;;;12.75;6.53;;;16.10;73.30;;;;;;4974301;28;20037;-70
2022/05/04 13:13:22;;;;;;;11.30;6.03;;;16.20;73.60;;;;;;4974303;28;20050;-70
2022/05/04 13:15:52;;;;;;;14.27;6.72;;;16.10;73.60;;;;;;4974277;28;20255;-70